Time;durP1;ratioP1;P1;durP2;ratioP2;P2;SDS_P1;SDS_P2;PMS_P1;PMS_P2;Temp;Humidity;BMP_temperature;BMP_pressure;BME280_temperature;BME280_humidity;BME280_pressure;Samples;Min_cycle;Max_cycle;Signal;HPM_P1;HPM_P2
2021/07/26 00:00:42;;;;;;;;;;;18.80;99.90;;;;;;5105383;28;20112;-59
2021/07/26 00:03:08;;;;;;;;;;;18.90;99.90;;;;;;5100443;28;19908;-59
2021/07/26 00:05:33;;;;;;;;;;;18.90;99.90;;;;;;5098223;28;19912;-59
2021/07/26 00:07:59;;;;;;;;;;;18.90;99.90;;;;;;5100752;28;20003;-58
2021/07/26 00:10:24;;;;;;;;;;;18.80;99.90;;;;;;5104623;28;19916;-56
2021/07/26 00:12:50;;;;;;;;;;;18.80;99.90;;;;;;5099361;28;19934;-59
2021/07/26 00:15:15;;;;;;;;;;;18.80;99.90;;;;;;5106374;28;20447;-59
2021/07/26 00:17:41;;;;;;;;;;;18.80;99.90;;;;;;5099213;28;19973;-59
2021/07/26 00:20:07;;;;;;;;;;;18.80;99.90;;;;;;5107703;28;19953;-60
2021/07/26 00:22:33;;;;;;;;;;;18.80;99.90;;;;;;5099001;28;19908;-59
2021/07/26 00:24:58;;;;;;;;;;;18.70;99.90;;;;;;5100136;28;20378;-59
2021/07/26 00:27:23;;;;;;;;;;;18.70;99.90;;;;;;5104536;28;19908;-60
2021/07/26 00:29:49;;;;;;;;;;;18.70;99.90;;;;;;5099247;28;19962;-59
2021/07/26 00:32:14;;;;;;;;;;;18.70;99.90;;;;;;5106715;28;19919;-60
2021/07/26 00:34:40;;;;;;;;;;;18.70;99.90;;;;;;5098196;28;20320;-60
2021/07/26 00:37:05;;;;;;;;;;;18.70;99.90;;;;;;5107506;28;19914;-59
2021/07/26 00:39:32;;;;;;;;;;;18.70;99.90;;;;;;5099134;28;19912;-59
2021/07/26 00:41:58;;;;;;;;;;;18.70;99.90;;;;;;5100379;28;20422;-59
2021/07/26 00:44:24;;;;;;;;;;;18.70;99.90;;;;;;5104284;28;19999;-61
2021/07/26 00:46:50;;;;;;;;;;;18.70;99.90;;;;;;5098977;28;19916;-59
2021/07/26 00:49:17;;;;;;;;;;;18.60;99.90;;;;;;5106215;28;19908;-59
2021/07/26 01:03:55;;;;;;;;;;;18.50;99.90;;;;;;5094111;28;19954;-58
2021/07/26 01:06:21;;;;;;;;;;;18.50;99.90;;;;;;5102180;28;19916;-59
2021/07/26 01:08:47;;;;;;;;;;;18.50;99.90;;;;;;5100973;28;19912;-60
2021/07/26 01:11:12;;;;;;;;;;;18.50;99.90;;;;;;5102140;28;19916;-60
2021/07/26 01:13:38;;;;;;;;;;;18.50;99.90;;;;;;5101492;28;19990;-60
2021/07/26 01:16:04;;;;;;;;;;;18.50;99.90;;;;;;5102820;28;19912;-59
2021/07/26 01:18:33;;;;;;;;;;;18.50;99.90;;;;;;5106264;28;19908;-59
2021/07/26 01:21:05;;;;;;;;;;;18.50;99.90;;;;;;5106080;28;19908;-60
2021/07/26 01:23:31;;;;;;;;;;;18.50;99.90;;;;;;5106164;28;19998;-59
2021/07/26 01:25:57;;;;;;;;;;;18.50;99.90;;;;;;5103830;28;19916;-58
2021/07/26 01:28:25;;;;;;;;;;;18.50;99.90;;;;;;5106094;28;20405;-58
2021/07/26 01:30:50;;;;;;;;;;;18.50;99.90;;;;;;5104839;28;19927;-59
2021/07/26 01:33:16;;;;;;;;;;;18.50;99.90;;;;;;5105932;28;19912;-57
2021/07/26 01:35:42;;;;;;;;;;;18.50;99.90;;;;;;5087255;28;19912;-60
2021/07/26 01:38:08;;;;;;;;;;;18.40;99.90;;;;;;5105823;28;19908;-60
2021/07/26 01:40:35;;;;;;;;;;;18.40;99.90;;;;;;5106173;28;19908;-58
2021/07/26 01:43:03;;;;;;;;;;;18.40;99.90;;;;;;5096385;28;19915;-60
2021/07/26 01:45:29;;;;;;;;;;;18.40;99.90;;;;;;5101647;28;19954;-59
2021/07/26 01:47:58;;;;;;;;;;;18.40;99.90;;;;;;5083138;28;20381;-58
2021/07/26 01:50:26;;;;;;;;;;;18.40;99.90;;;;;;5107785;28;19915;-60
2021/07/26 01:52:52;;;;;;;;;;;18.40;99.90;;;;;;5105498;28;19986;-59
2021/07/26 01:55:18;;;;;;;;;;;18.40;99.90;;;;;;5103842;28;19915;-59
2021/07/26 01:57:43;;;;;;;;;;;18.40;99.90;;;;;;5105870;28;19907;-59
2021/07/26 02:00:09;;;;;;;;;;;18.40;99.90;;;;;;5086264;28;20505;-59
2021/07/26 02:02:34;;;;;;;;;;;18.40;99.90;;;;;;5105387;28;19907;-59
2021/07/26 02:05:00;;;;;;;;;;;18.30;99.90;;;;;;5103351;28;20007;-61
2021/07/26 02:07:25;;;;;;;;;;;18.30;99.90;;;;;;5105113;28;20002;-60
2021/07/26 02:09:51;;;;;;;;;;;18.30;99.90;;;;;;5105381;28;19999;-60
2021/07/26 02:12:17;;;;;;;;;;;18.30;99.90;;;;;;5104173;28;19912;-60
2021/07/26 02:14:42;;;;;;;;;;;18.30;99.90;;;;;;5105059;28;19922;-60
2021/07/26 02:17:07;;;;;;;;;;;18.30;99.90;;;;;;5108652;22;19924;-51
2021/07/26 02:19:33;;;;;;;;;;;18.20;99.90;;;;;;5093189;28;20381;-51
2021/07/26 02:21:59;;;;;;;;;;;18.20;99.90;;;;;;5092925;28;19931;-52
2021/07/26 02:24:24;;;;;;;;;;;18.20;99.90;;;;;;5092760;28;19922;-49
2021/07/26 02:26:50;;;;;;;;;;;18.10;99.90;;;;;;5103951;28;20301;-53
2021/07/26 02:29:15;;;;;;;;;;;18.10;99.90;;;;;;5111397;28;19904;-53
2021/07/26 02:31:41;;;;;;;;;;;18.00;99.90;;;;;;5108159;28;19919;-50
2021/07/26 02:34:06;;;;;;;;;;;18.00;99.90;;;;;;5110269;28;19954;-50
2021/07/26 02:36:32;;;;;;;;;;;18.00;99.90;;;;;;5113035;28;19998;-55
2021/07/26 02:38:57;;;;;;;;;;;18.00;99.90;;;;;;5108876;28;19912;-50
2021/07/26 02:41:23;;;;;;;;;;;18.00;99.90;;;;;;5113487;28;20340;-49
2021/07/26 02:43:48;;;;;;;;;;;18.00;99.90;;;;;;5108740;28;19934;-50
2021/07/26 02:46:14;;;;;;;;;;;18.00;99.90;;;;;;5110567;28;19908;-52
2021/07/26 02:48:39;;;;;;;;;;;17.90;99.90;;;;;;5107855;28;19908;-50
2021/07/26 02:51:05;;;;;;;;;;;17.90;99.90;;;;;;5109753;28;19915;-49
2021/07/26 02:53:30;;;;;;;;;;;17.90;99.90;;;;;;5094462;28;19995;-52
2021/07/26 02:55:56;;;;;;;;;;;17.90;99.90;;;;;;5106893;28;19964;-53
2021/07/26 02:58:21;;;;;;;;;;;17.80;99.90;;;;;;5111505;28;19969;-52
2021/07/26 03:00:47;;;;;;;;;;;17.70;99.90;;;;;;5107230;28;19907;-48
2021/07/26 03:03:12;;;;;;;;;;;17.70;99.90;;;;;;5109128;28;20446;-50
2021/07/26 03:05:38;;;;;;;;;;;17.60;99.90;;;;;;5112525;28;20339;-56
2021/07/26 03:08:04;;;;;;;;;;;17.60;99.90;;;;;;5107603;28;19939;-51
2021/07/26 03:10:29;;;;;;;;;;;17.50;99.90;;;;;;5112462;28;19908;-50
2021/07/26 03:12:54;;;;;;;;;;;17.50;99.90;;;;;;5106888;28;20271;-49
2021/07/26 03:15:21;;;;;;;;;;;17.50;99.90;;;;;;5110702;28;19908;-47
2021/07/26 03:17:47;;;;;;;;;;;17.50;99.90;;;;;;5106771;28;19923;-51
2021/07/26 03:20:13;;;;;;;;;;;17.40;99.90;;;;;;5109147;28;19916;-52
2021/07/26 03:22:57;;;;;;;;;;;17.40;99.90;;;;;;5112144;28;19943;-52
2021/07/26 03:25:23;;;;;;;;;;;17.40;99.90;;;;;;5107793;28;19980;-49
2021/07/26 03:27:48;;;;;;;;;;;17.30;99.90;;;;;;5112081;28;20032;-51
2021/07/26 03:30:15;;;;;;;;;;;17.30;99.90;;;;;;5105065;28;19908;-47
2021/07/26 03:32:40;;;;;;;;;;;17.30;99.90;;;;;;5111828;28;19908;-51
2021/07/26 03:35:06;;;;;;;;;;;17.30;99.90;;;;;;5104037;28;20293;-48
2021/07/26 03:37:31;;;;;;;;;;;17.30;99.90;;;;;;5110741;28;19907;-55
2021/07/26 03:39:56;;;;;;;;;;;17.30;99.90;;;;;;5092432;28;19911;-49
2021/07/26 03:42:22;;;;;;;;;;;17.30;99.90;;;;;;5107363;28;19908;-50
2021/07/26 03:44:47;;;;;;;;;;;17.30;99.90;;;;;;5111443;28;19908;-52
2021/07/26 03:47:13;;;;;;;;;;;17.30;99.90;;;;;;5104575;28;19994;-48
2021/07/26 03:49:38;;;;;;;;;;;17.30;99.90;;;;;;5111753;28;19911;-52
2021/07/26 03:52:04;;;;;;;;;;;17.30;99.90;;;;;;5087330;28;19912;-52
2021/07/26 03:54:29;;;;;;;;;;;17.30;99.90;;;;;;5106686;28;19943;-54
2021/07/26 03:56:55;;;;;;;;;;;17.40;99.90;;;;;;5109530;28;19918;-49
2021/07/26 03:59:21;;;;;;;;;;;17.30;99.90;;;;;;5107038;28;19944;-48
2021/07/26 04:01:46;;;;;;;;;;;17.40;99.90;;;;;;5107375;28;19914;-50
2021/07/26 04:04:12;;;;;;;;;;;17.40;99.90;;;;;;5111528;28;20362;-48
2021/07/26 04:06:39;;;;;;;;;;;17.40;99.90;;;;;;5107395;28;20305;-48
2021/07/26 04:09:07;;;;;;;;;;;17.50;99.90;;;;;;5110395;28;19927;-51
2021/07/26 04:11:38;;;;;;;;;;;17.50;99.90;;;;;;5106538;28;20290;-55
2021/07/26 04:14:05;;;;;;;;;;;17.50;99.90;;;;;;5108668;28;19969;-48
2021/07/26 04:16:31;;;;;;;;;;;17.60;99.90;;;;;;5105591;28;19916;-51
2021/07/26 04:18:58;;;;;;;;;;;17.60;99.90;;;;;;5108265;28;20378;-52
2021/07/26 04:21:31;;;;;;;;;;;17.70;99.90;;;;;;5110545;28;19934;-50
2021/07/26 04:23:57;;;;;;;;;;;17.70;99.90;;;;;;5107089;28;19908;-48
2021/07/26 04:26:22;;;;;;;;;;;17.70;99.90;;;;;;5109576;28;19915;-51
2021/07/26 04:28:48;;;;;;;;;;;17.80;99.90;;;;;;5106327;28;20358;-53
2021/07/26 04:31:13;;;;;;;;;;;17.90;99.90;;;;;;5108669;28;19919;-51
2021/07/26 04:33:39;;;;;;;;;;;17.90;99.90;;;;;;5105061;28;20358;-51
2021/07/26 04:36:04;;;;;;;;;;;18.00;99.90;;;;;;5089313;28;19931;-53
2021/07/26 04:38:30;;;;;;;;;;;18.00;99.90;;;;;;5110828;28;19908;-53
2021/07/26 04:40:56;;;;;;;;;;;18.10;99.90;;;;;;5088452;28;19914;-54
2021/07/26 04:43:22;;;;;;;;;;;18.10;99.90;;;;;;5109429;28;19925;-52
2021/07/26 04:45:47;;;;;;;;;;;18.20;99.90;;;;;;5105749;28;20026;-53
2021/07/26 04:48:12;;;;;;;;;;;18.30;99.90;;;;;;5108545;28;19907;-48
2021/07/26 04:50:38;;;;;;;;;;;18.30;99.90;;;;;;5104375;28;20294;-48
2021/07/26 04:53:03;;;;;;;;;;;18.40;99.90;;;;;;5110536;28;19969;-54
2021/07/26 04:55:29;;;;;;;;;;;18.40;99.90;;;;;;5105730;28;19911;-52
2021/07/26 04:57:54;;;;;;;;;;;18.50;99.90;;;;;;5090112;28;19931;-51
2021/07/26 05:00:20;;;;;;;;;;;18.60;99.90;;;;;;5087064;28;19907;-55
2021/07/26 05:02:45;;;;;;;;;;;18.70;99.90;;;;;;5107819;28;19915;-50
2021/07/26 05:05:11;;;;;;;;;;;18.80;99.90;;;;;;5109874;28;19908;-49
2021/07/26 05:07:36;;;;;;;;;;;18.90;99.90;;;;;;5107138;28;19908;-55
2021/07/26 05:10:02;;;;;;;;;;;19.00;99.90;;;;;;5109207;28;19912;-56
2021/07/26 05:12:28;;;;;;;;;;;19.00;99.90;;;;;;5105843;28;19919;-52
2021/07/26 05:14:53;;;;;;;;;;;19.00;99.90;;;;;;5107712;28;19973;-49
2021/07/26 05:17:26;;;;;;;;;;;19.10;99.90;;;;;;5105016;28;19916;-50
2021/07/26 05:19:52;;;;;;;;;;;19.20;99.90;;;;;;5107312;28;19914;-51
2021/07/26 05:22:18;;;;;;;;;;;19.30;99.90;;;;;;5110119;28;19908;-52
2021/07/26 05:24:43;;;;;;;;;;;19.30;99.90;;;;;;5106502;28;19930;-52
2021/07/26 05:27:09;;;;;;;;;;;19.40;99.90;;;;;;5108938;28;20489;-52
2021/07/26 05:29:35;;;;;;;;;;;19.50;99.90;;;;;;5105773;28;19935;-53
2021/07/26 05:32:00;;;;;;;;;;;19.60;99.90;;;;;;5107855;28;19911;-50
2021/07/26 05:34:29;;;;;;;;;;;19.60;99.90;;;;;;5086317;28;19912;-51
2021/07/26 05:36:54;;;;;;;;;;;19.70;99.90;;;;;;5106862;28;19911;-50
2021/07/26 05:39:23;;;;;;;;;;;19.80;99.90;;;;;;5110597;28;20396;-48
2021/07/26 05:41:48;;;;;;;;;;;19.80;99.90;;;;;;5088173;28;19994;-49
2021/07/26 05:44:14;;;;;;;;;;;19.90;99.90;;;;;;5108728;28;20446;-50
2021/07/26 05:46:39;;;;;;;;;;;20.00;99.90;;;;;;5105229;28;19919;-54
2021/07/26 05:49:05;;;;;;;;;;;20.00;99.90;;;;;;5107894;28;20258;-48
2021/07/26 05:51:30;;;;;;;;;;;20.10;99.90;;;;;;5104482;28;19916;-51
2021/07/26 05:53:56;;;;;;;;;;;20.20;99.90;;;;;;5109425;28;20557;-50
2021/07/26 05:56:21;;;;;;;;;;;20.30;99.90;;;;;;5104332;28;19919;-53
2021/07/26 05:58:49;;;;;;;;;;;20.30;99.90;;;;;;5110457;28;20511;-51
2021/07/26 06:03:59;;;;;;;;;;;20.50;99.90;;;;;;5113204;28;20105;-51
2021/07/26 06:06:24;;;;;;;;;;;20.60;99.90;;;;;;5109938;28;20441;-54
2021/07/26 06:08:49;;;;;;;;;;;20.60;99.90;;;;;;5112739;28;20266;-52
2021/07/26 06:11:15;;;;;;;;;;;20.70;99.90;;;;;;5103129;28;19993;-51
2021/07/26 06:13:40;;;;;;;;;;;20.80;99.90;;;;;;5110224;28;19960;-54
2021/07/26 06:16:07;;;;;;;;;;;20.80;99.90;;;;;;5111263;28;20048;-55
2021/07/26 06:18:33;;;;;;;;;;;20.90;99.90;;;;;;5107788;28;19986;-54
2021/07/26 06:20:58;;;;;;;;;;;21.00;99.90;;;;;;5113204;28;20376;-55
2021/07/26 06:23:25;;;;;;;;;;;21.00;99.90;;;;;;5109490;28;19915;-55
2021/07/26 06:25:50;;;;;;;;;;;21.10;99.90;;;;;;5112040;28;19915;-53
2021/07/26 06:28:16;;;;;;;;;;;21.20;99.90;;;;;;5109806;28;19908;-50
2021/07/26 06:30:41;;;;;;;;;;;21.20;99.90;;;;;;5109937;28;19911;-53
2021/07/26 06:33:08;;;;;;;;;;;21.30;99.90;;;;;;5092768;28;19907;-56
2021/07/26 06:35:33;;;;;;;;;;;21.40;99.90;;;;;;5106826;28;19908;-50
2021/07/26 06:37:59;;;;;;;;;;;21.50;99.90;;;;;;5112951;28;20370;-53
2021/07/26 06:40:24;;;;;;;;;;;21.50;99.90;;;;;;5109269;28;19912;-50
2021/07/26 06:42:50;;;;;;;;;;;21.60;99.90;;;;;;5093368;28;19907;-54
2021/07/26 06:45:15;;;;;;;;;;;21.70;99.90;;;;;;5109600;28;19908;-52
2021/07/26 06:47:43;;;;;;;;;;;21.70;99.90;;;;;;5109742;28;20262;-49
2021/07/26 06:50:09;;;;;;;;;;;21.80;99.90;;;;;;5110413;28;20457;-50
2021/07/26 06:52:35;;;;;;;;;;;21.90;99.90;;;;;;5091771;28;20069;-49
2021/07/26 06:55:00;;;;;;;;;;;22.00;99.90;;;;;;5107854;28;19908;-49
2021/07/26 06:57:26;;;;;;;;;;;22.20;99.90;;;;;;5110691;28;19969;-53
2021/07/26 06:59:51;;;;;;;;;;;22.30;99.90;;;;;;5107355;28;20010;-49
2021/07/26 07:02:16;;;;;;;;;;;22.50;99.90;;;;;;5110147;28;19912;-52
2021/07/26 07:04:42;;;;;;;;;;;22.80;99.90;;;;;;5112304;28;19907;-50
2021/07/26 07:07:07;;;;;;;;;;;23.10;99.90;;;;;;5108896;28;20285;-53
2021/07/26 07:09:33;;;;;;;;;;;23.40;99.90;;;;;;5111328;28;19912;-53
2021/07/26 07:11:58;;;;;;;;;;;23.70;99.90;;;;;;5107533;28;19938;-51
2021/07/26 07:14:24;;;;;;;;;;;23.90;99.90;;;;;;5110014;28;20404;-54
2021/07/26 07:16:49;;;;;;;;;;;24.00;99.90;;;;;;5106683;28;19986;-49
2021/07/26 07:19:15;;;;;;;;;;;24.00;99.90;;;;;;5109355;28;19911;-53
2021/07/26 07:21:40;;;;;;;;;;;23.90;99.90;;;;;;5111910;28;19994;-51
2021/07/26 07:24:06;;;;;;;;;;;23.90;99.90;;;;;;5108321;28;20316;-52
2021/07/26 07:26:32;;;;;;;;;;;23.90;99.90;;;;;;5110706;28;19908;-52
2021/07/26 07:28:58;;;;;;;;;;;24.10;99.90;;;;;;5089255;28;19912;-49
2021/07/26 07:31:26;;;;;;;;;;;24.30;99.90;;;;;;5092013;28;20293;-53
2021/07/26 07:33:52;;;;;;;;;;;24.50;99.90;;;;;;5106408;28;19918;-55
2021/07/26 07:36:17;;;;;;;;;;;24.80;99.90;;;;;;5109000;28;20426;-55
2021/07/26 07:38:43;;;;;;;;;;;25.00;99.90;;;;;;5111387;28;19912;-53
2021/07/26 07:41:08;;;;;;;;;;;25.20;99.90;;;;;;5107930;28;19908;-52
2021/07/26 07:43:34;;;;;;;;;;;25.40;99.90;;;;;;5110822;28;20386;-53
2021/07/26 07:45:59;;;;;;;;;;;25.50;99.90;;;;;;5088741;28;19908;-50
2021/07/26 07:48:25;;;;;;;;;;;25.60;99.90;;;;;;5109661;28;19919;-56
2021/07/26 07:50:54;;;;;;;;;;;25.80;99.90;;;;;;5105964;28;20457;-54
2021/07/26 07:53:20;;;;;;;;;;;25.90;99.90;;;;;;5111575;28;20375;-50
2021/07/26 07:55:46;;;;;;;;;;;26.10;99.90;;;;;;5106708;28;20002;-52
2021/07/26 07:58:11;;;;;;;;;;;26.30;99.90;;;;;;5109534;28;19907;-55
2021/07/26 08:00:37;;;;;;;;;;;26.40;99.90;;;;;;5106470;28;19954;-54
2021/07/26 08:03:03;;;;;;;;;;;26.50;99.90;;;;;;5108457;28;20003;-51
2021/07/26 08:05:29;;;;;;;;;;;26.60;99.90;;;;;;5111309;28;19976;-51
2021/07/26 08:07:54;;;;;;;;;;;26.60;99.90;;;;;;5107058;28;20262;-53
2021/07/26 08:10:20;;;;;;;;;;;26.60;99.90;;;;;;5110623;28;19915;-53
2021/07/26 08:12:46;;;;;;;;;;;26.50;99.90;;;;;;5106450;28;20021;-52
2021/07/26 08:15:11;;;;;;;;;;;26.40;99.90;;;;;;5108965;28;19957;-54
2021/07/26 08:17:38;;;;;;;;;;;26.20;99.90;;;;;;5102320;22;19924;-60
2021/07/26 08:20:04;;;;;;;;;;;26.10;99.90;;;;;;5070574;28;19908;-60
2021/07/26 08:22:29;;;;;;;;;;;26.00;99.90;;;;;;5052724;28;20450;-58
2021/07/26 08:24:54;;;;;;;;;;;26.00;99.90;;;;;;5051656;28;19916;-62
2021/07/26 08:27:20;;;;;;;;;;;25.90;99.90;;;;;;5070201;28;19909;-61
2021/07/26 08:29:45;;;;;;;;;;;25.80;99.90;;;;;;5070731;28;19915;-58
2021/07/26 08:32:11;;;;;;;;;;;25.90;99.90;;;;;;5070650;28;20005;-61
2021/07/26 08:34:36;;;;;;;;;;;25.80;99.90;;;;;;5070221;28;20259;-62
2021/07/26 08:37:03;;;;;;;;;;;25.80;99.90;;;;;;5070165;28;19999;-60
2021/07/26 08:39:30;;;;;;;;;;;25.70;99.90;;;;;;5070324;28;19909;-60
2021/07/26 08:41:55;;;;;;;;;;;25.60;99.90;;;;;;5070580;28;19929;-60
2021/07/26 08:44:21;;;;;;;;;;;25.60;99.90;;;;;;5051975;28;20420;-61
2021/07/26 08:46:47;;;;;;;;;;;25.60;99.90;;;;;;5070161;28;19912;-61
2021/07/26 08:49:13;;;;;;;;;;;25.60;99.90;;;;;;5070368;28;19915;-62
2021/07/26 08:51:41;;;;;;;;;;;25.60;99.90;;;;;;5053113;28;19912;-60
2021/07/26 08:54:07;;;;;;;;;;;25.50;99.90;;;;;;5070841;28;19976;-59
2021/07/26 08:56:34;;;;;;;;;;;25.50;99.90;;;;;;5070208;28;19913;-61
2021/07/26 08:59:00;;;;;;;;;;;25.50;99.90;;;;;;5052395;28;19966;-60
2021/07/26 09:01:25;;;;;;;;;;;25.40;99.90;;;;;;5052440;28;19917;-61
2021/07/26 09:03:52;;;;;;;;;;;25.40;99.90;;;;;;5052209;28;19908;-61
2021/07/26 09:06:17;;;;;;;;;;;25.30;99.90;;;;;;5069860;28;19959;-62
2021/07/26 09:08:42;;;;;;;;;;;25.30;99.90;;;;;;5070129;28;19952;-61
2021/07/26 09:11:09;;;;;;;;;;;25.30;99.90;;;;;;5070086;28;19912;-60
2021/07/26 09:13:39;;;;;;;;;;;25.20;99.90;;;;;;5051596;28;20632;-61
2021/07/26 09:16:23;;;;;;;;;;;25.20;99.90;;;;;;5070167;28;20003;-61
2021/07/26 09:19:02;;;;;;;;;;;25.20;99.90;;;;;;5051778;28;19964;-60
2021/07/26 09:21:49;;;;;;;;;;;25.10;99.90;;;;;;5063597;28;20379;-60
2021/07/26 09:24:21;;;;;;;;;;;25.00;99.90;;;;;;5033911;28;19915;-61
2021/07/26 09:26:47;;;;;;;;;;;25.00;99.90;;;;;;5051766;28;19908;-61
2021/07/26 09:29:28;;;;;;;;;;;25.00;99.90;;;;;;5069942;28;19915;-61
2021/07/26 09:32:05;;;;;;;;;;;25.00;99.90;;;;;;5052107;28;20214;-62
2021/07/26 09:34:30;;;;;;;;;;;25.00;99.90;;;;;;5051632;28;19913;-62
2021/07/26 09:36:56;;;;;;;;;;;24.90;99.90;;;;;;5071158;28;19965;-61
2021/07/26 09:39:23;;;;;;;;;;;24.90;99.90;;;;;;5055895;28;19912;-61
2021/07/26 09:41:49;;;;;;;;;;;24.80;99.90;;;;;;5073791;28;19909;-61
2021/07/26 09:44:20;;;;;;;;;;;24.70;99.90;;;;;;5055528;28;20267;-61
2021/07/26 09:46:45;;;;;;;;;;;24.70;99.90;;;;;;5073622;28;19909;-61
2021/07/26 09:49:12;;;;;;;;;;;24.70;99.90;;;;;;5055353;28;19916;-61
2021/07/26 09:51:38;;;;;;;;;;;24.80;99.90;;;;;;5073439;28;19919;-60
2021/07/26 09:54:04;;;;;;;;;;;24.80;99.90;;;;;;5055680;28;19912;-61
2021/07/26 09:56:33;;;;;;;;;;;24.70;99.90;;;;;;5073118;28;19997;-60
2021/07/26 09:58:59;;;;;;;;;;;24.70;99.90;;;;;;5055542;28;19908;-60
2021/07/26 10:01:25;;;;;;;;;;;24.60;99.90;;;;;;5055667;28;19909;-60
2021/07/26 10:03:53;;;;;;;;;;;24.50;99.90;;;;;;5073408;28;19996;-61
2021/07/26 10:06:19;;;;;;;;;;;24.30;99.90;;;;;;5055078;28;19912;-59
2021/07/26 10:08:44;;;;;;;;;;;24.30;99.90;;;;;;5055302;28;19913;-60
2021/07/26 10:11:10;;;;;;;;;;;24.30;99.90;;;;;;5073195;28;19920;-61
2021/07/26 10:13:40;;;;;;;;;;;24.20;99.90;;;;;;5072924;28;19916;-60
2021/07/26 10:16:06;;;;;;;;;;;24.20;99.90;;;;;;5073183;28;19915;-61
2021/07/26 10:18:31;;;;;;;;;;;24.10;99.90;;;;;;5072932;28;19924;-60
2021/07/26 10:21:03;;;;;;;;;;;24.10;99.90;;;;;;5055177;28;19915;-55
2021/07/26 10:23:31;;;;;;;;;;;24.00;99.90;;;;;;5072793;28;19912;-61
2021/07/26 10:25:58;;;;;;;;;;;24.00;99.90;;;;;;5054563;28;19908;-61
2021/07/26 10:28:25;;;;;;;;;;;24.00;99.90;;;;;;5072889;28;19917;-60
2021/07/26 10:30:51;;;;;;;;;;;23.90;99.90;;;;;;5055267;28;19965;-60
2021/07/26 10:33:16;;;;;;;;;;;23.80;99.90;;;;;;5072975;28;20321;-59
2021/07/26 10:35:54;;;;;;;;;;;23.80;99.90;;;;;;5072132;28;19908;-59
2021/07/26 10:38:46;;;;;;;;;;;23.70;99.90;;;;;;5065134;28;19916;-57
2021/07/26 10:41:31;;;;;;;;;;;23.70;99.90;;;;;;5057034;28;19961;-55
2021/07/26 10:44:00;;;;;;;;;;;23.60;99.90;;;;;;5072160;28;19909;-59
2021/07/26 10:46:25;;;;;;;;;;;23.50;99.90;;;;;;5072226;28;19915;-60
2021/07/26 10:48:52;;;;;;;;;;;23.40;99.90;;;;;;5053560;28;19908;-60
2021/07/26 10:51:33;;;;;;;;;;;23.40;99.90;;;;;;5072092;28;19912;-61
2021/07/26 10:53:59;;;;;;;;;;;23.40;99.90;;;;;;5072259;28;19915;-55
2021/07/26 10:56:24;;;;;;;;;;;23.40;99.90;;;;;;5072001;28;19917;-59
2021/07/26 10:59:00;;;;;;;;;;;23.40;99.90;;;;;;5072654;28;19908;-58
2021/07/26 11:01:26;;;;;;;;;;;23.40;99.90;;;;;;5072104;28;19908;-60
2021/07/26 11:03:52;;;;;;;;;;;23.40;99.90;;;;;;5054023;28;19935;-61
2021/07/26 11:06:36;;;;;;;;;;;23.50;99.90;;;;;;5053581;28;19908;-60
2021/07/26 11:09:17;;;;;;;;;;;23.60;99.90;;;;;;5053932;28;19909;-60
2021/07/26 11:11:42;;;;;;;;;;;23.70;99.90;;;;;;5071617;28;19912;-60
2021/07/26 11:14:09;;;;;;;;;;;23.80;99.90;;;;;;5071326;28;20267;-58
2021/07/26 11:17:00;;;;;;;;;;;23.90;99.90;;;;;;5071261;28;20274;-60
2021/07/26 11:19:37;;;;;;;;;;;23.90;99.90;;;;;;5071841;28;20166;-60
2021/07/26 11:22:15;;;;;;;;;;;24.00;99.90;;;;;;5071443;28;19940;-59
2021/07/26 11:24:43;;;;;;;;;;;24.20;99.90;;;;;;5071378;28;20291;-60
2021/07/26 11:27:09;;;;;;;;;;;24.20;99.90;;;;;;5053632;28;19981;-60
2021/07/26 11:29:35;;;;;;;;;;;24.30;99.90;;;;;;5071901;28;19908;-60
2021/07/26 11:32:01;;;;;;;;;;;24.40;99.90;;;;;;5071433;28;20332;-60
2021/07/26 11:34:36;;;;;;;;;;;24.50;99.90;;;;;;5071166;28;20378;-57
2021/07/26 11:37:09;;;;;;;;;;;24.60;99.90;;;;;;5053258;28;19958;-58
2021/07/26 11:39:43;;;;;;;;;;;24.70;99.90;;;;;;5071548;28;19913;-57
2021/07/26 11:42:09;;;;;;;;;;;24.70;99.90;;;;;;5071328;28;19930;-60
2021/07/26 11:44:34;;;;;;;;;;;24.80;99.90;;;;;;5053084;28;20481;-60
2021/07/26 11:47:01;;;;;;;;;;;25.00;99.90;;;;;;5070997;28;19915;-60
2021/07/26 11:49:26;;;;;;;;;;;25.10;99.90;;;;;;5071133;28;19912;-59
2021/07/26 11:52:04;;;;;;;;;;;25.30;99.90;;;;;;5053083;28;20467;-60
2021/07/26 11:54:29;;;;;;;;;;;25.60;99.90;;;;;;5052964;28;19909;-62
2021/07/26 11:57:02;;;;;;;;;;;25.80;99.90;;;;;;5071261;28;20290;-61
2021/07/26 11:59:30;;;;;;;;;;;25.90;99.90;;;;;;5071196;28;19912;-61
2021/07/26 12:01:59;;;;;;;;;;;26.20;99.90;;;;;;5067566;28;20606;-61
2021/07/26 12:04:26;;;;;;;;;;;26.50;99.90;;;;;;5070723;28;19955;-60
2021/07/26 12:06:53;;;;;;;;;;;26.60;99.90;;;;;;5052551;28;19915;-60
2021/07/26 12:09:19;;;;;;;;;;;26.70;99.10;;;;;;5052778;28;19908;-60
2021/07/26 12:11:44;;;;;;;;;;;26.90;99.10;;;;;;5052717;28;19920;-61
2021/07/26 12:14:29;;;;;;;;;;;26.90;98.30;;;;;;5052446;28;19923;-62
2021/07/26 12:16:59;;;;;;;;;;;27.10;98.10;;;;;;5052251;28;20113;-61
2021/07/26 12:19:24;;;;;;;;;;;27.30;98.40;;;;;;5070733;28;19909;-61
2021/07/26 12:21:50;;;;;;;;;;;27.40;98.40;;;;;;5070465;28;19954;-59
2021/07/26 12:24:15;;;;;;;;;;;27.40;97.50;;;;;;5070533;28;19914;-61
2021/07/26 12:27:13;;;;;;;;;;;27.50;96.90;;;;;;5070554;28;19912;-60
2021/07/26 12:29:54;;;;;;;;;;;27.70;97.30;;;;;;5036547;28;19912;-60
2021/07/26 12:32:20;;;;;;;;;;;27.90;96.90;;;;;;5034181;28;19912;-59
2021/07/26 12:35:04;;;;;;;;;;;28.10;97.10;;;;;;5070085;28;19912;-62
2021/07/26 12:37:29;;;;;;;;;;;28.30;96.40;;;;;;5051263;28;19962;-61
2021/07/26 12:40:10;;;;;;;;;;;28.40;95.10;;;;;;5052273;28;19917;-61
2021/07/26 12:42:35;;;;;;;;;;;28.60;94.70;;;;;;5070237;28;19932;-61
2021/07/26 12:45:27;;;;;;;;;;;28.70;93.40;;;;;;5052252;28;20366;-61
2021/07/26 12:47:53;;;;;;;;;;;28.80;93.20;;;;;;5046046;28;19948;-61
2021/07/26 12:50:19;;;;;;;;;;;28.90;92.30;;;;;;5070318;28;20336;-61
2021/07/26 12:52:44;;;;;;;;;;;28.60;91.30;;;;;;5069988;28;19916;-60
2021/07/26 12:55:13;;;;;;;;;;;28.60;92.30;;;;;;5051935;28;19917;-62
2021/07/26 12:57:38;;;;;;;;;;;28.80;91.60;;;;;;5070347;28;20298;-61
2021/07/26 13:00:04;;;;;;;;;;;28.90;91.70;;;;;;5070021;28;19912;-61
2021/07/26 13:02:29;;;;;;;;;;;29.00;90.20;;;;;;5051776;28;20345;-62
2021/07/26 13:04:55;;;;;;;;;;;29.20;91.00;;;;;;5069517;28;20295;-60
2021/07/26 13:07:20;;;;;;;;;;;29.30;90.10;;;;;;5070122;28;19920;-60
2021/07/26 13:09:46;;;;;;;;;;;29.50;90.40;;;;;;5069845;28;19909;-61
2021/07/26 13:12:11;;;;;;;;;;;29.60;90.20;;;;;;5072014;28;20298;-59
2021/07/26 13:14:37;;;;;;;;;;;29.80;90.10;;;;;;5073509;28;19916;-59
2021/07/26 13:17:02;;;;;;;;;;;30.00;88.90;;;;;;5073686;28;19924;-59
2021/07/26 13:19:28;;;;;;;;;;;30.00;87.60;;;;;;5074167;28;19912;-56
2021/07/26 13:21:53;;;;;;;;;;;30.10;88.40;;;;;;5073869;28;20011;-60
2021/07/26 13:24:19;;;;;;;;;;;30.20;88.40;;;;;;5055995;28;20616;-60
2021/07/26 13:26:44;;;;;;;;;;;30.40;85.10;;;;;;5073706;28;19929;-59
2021/07/26 13:29:10;;;;;;;;;;;30.40;85.60;;;;;;5056066;28;19999;-58
2021/07/26 13:31:38;;;;;;;;;;;30.50;84.30;;;;;;5073838;28;19923;-60
2021/07/26 13:34:05;;;;;;;;;;;30.50;83.30;;;;;;5073510;28;19908;-58
2021/07/26 13:36:30;;;;;;;;;;;30.40;82.60;;;;;;5055345;28;19909;-60
2021/07/26 13:38:56;;;;;;;;;;;30.10;81.60;;;;;;5073334;28;20003;-61
2021/07/26 13:41:21;;;;;;;;;;;30.00;80.30;;;;;;5073533;28;20294;-57
2021/07/26 13:43:47;;;;;;;;;;;29.60;81.50;;;;;;5055479;28;19921;-60
2021/07/26 13:46:12;;;;;;;;;;;29.70;83.10;;;;;;5073265;28;20034;-60
2021/07/26 13:48:38;;;;;;;;;;;29.70;82.50;;;;;;5073478;28;19908;-60
2021/07/26 13:51:03;;;;;;;;;;;29.90;83.40;;;;;;5073261;28;19912;-59
2021/07/26 13:53:29;;;;;;;;;;;30.20;82.90;;;;;;5073719;28;19916;-60
2021/07/26 13:55:54;;;;;;;;;;;30.50;84.50;;;;;;5055550;28;19915;-60
2021/07/26 13:58:20;;;;;;;;;;;30.40;82.30;;;;;;5072962;28;19912;-59
2021/07/26 14:00:45;;;;;;;;;;;30.30;81.00;;;;;;5072267;28;19909;-60
2021/07/26 14:03:11;;;;;;;;;;;30.20;81.50;;;;;;5072957;28;19912;-59
2021/07/26 14:05:38;;;;;;;;;;;30.20;82.50;;;;;;5072735;28;19912;-59
2021/07/26 14:08:04;;;;;;;;;;;30.40;84.50;;;;;;5073046;28;19932;-59
2021/07/26 14:10:29;;;;;;;;;;;30.50;82.50;;;;;;5073179;28;20321;-59
2021/07/26 14:12:54;;;;;;;;;;;30.60;81.40;;;;;;5072707;28;19934;-60
2021/07/26 14:15:20;;;;;;;;;;;30.60;81.90;;;;;;5072794;28;19992;-60
2021/07/26 14:17:45;;;;;;;;;;;30.50;82.40;;;;;;5159920;22;19988;-58
2021/07/26 14:20:11;;;;;;;;;;;30.10;79.00;;;;;;5087701;28;19907;-58
2021/07/26 14:22:37;;;;;;;;;;;29.80;79.90;;;;;;5107896;28;19930;-56
2021/07/26 14:25:02;;;;;;;;;;;29.60;80.00;;;;;;5110183;28;19911;-58
2021/07/26 14:27:29;;;;;;;;;;;29.60;80.70;;;;;;5108013;28;20339;-57
2021/07/26 14:29:55;;;;;;;;;;;29.50;80.70;;;;;;5104511;28;20262;-59